Berkshire Heights, Massachusetts
Current Conditions -  °F | °C
As of 11:54 PM on Friday 28 Nov 2014 (Local Time) from KPSF Reporting Station
Overcast Overcast  
Wind Chill:   Ceiling: 3600
Heat Index: 19°   Visibility: 10mi
Dew Point: 12°   Wind: 9mph
Humidity: 74%   Direction: 300°WNW
Pressure: 30.16"   Gusts: NA
Location:  42.1779°N, 73.3332°W
Report Text: KPSF 290454Z AUTO 30008KT 10SM SCT030 OVC036 M07/M11 A3016 RMK AO2 SNB23E42 SLP233 P0000 T10721111 410281078
Loading
Personal Weather Stations






























Interactive Weather Map New forecast layout! Learn more

10-Day Weather Forecast

Advertisements
Track Severe Weather on mobile